createdAt,value
2023-04-02T00:02:00.237Z,0.50
2023-04-02T00:04:30.129Z,0.93
2023-04-02T00:07:32.637Z,0.80
2023-04-02T00:09:59.573Z,0.70
2023-04-02T00:12:26.100Z,0.60
2023-04-02T00:14:55.097Z,0.50
2023-04-02T00:17:24.902Z,0.52
2023-04-02T00:20:01.304Z,0.50
2023-04-02T00:22:31.722Z,0.50
2023-04-02T00:25:01.544Z,0.70
2023-04-02T00:27:32.820Z,0.75
2023-04-02T00:30:00.424Z,0.75
2023-04-02T00:32:31.025Z,0.90
2023-04-02T00:35:00.715Z,0.88
2023-04-02T00:37:38.656Z,0.75
2023-04-02T00:40:15.598Z,1.00
2023-04-02T00:42:43.579Z,1.20
2023-04-02T00:45:25.147Z,1.10
2023-04-02T00:47:56.241Z,1.27
2023-04-02T00:50:45.474Z,1.10
2023-04-02T00:53:24.082Z,1.00
2023-04-02T00:55:50.592Z,0.90
2023-04-02T00:58:26.622Z,0.70
2023-04-02T01:00:54.010Z,0.70
2023-04-02T01:03:22.976Z,0.60
2023-04-02T01:06:16.050Z,0.90
2023-04-02T01:09:11.412Z,0.65
2023-04-02T01:11:58.280Z,0.60
2023-04-02T01:14:45.856Z,0.50
2023-04-02T01:17:37.470Z,0.55
2023-04-02T01:20:37.346Z,0.50
2023-04-02T01:23:14.973Z,0.80
2023-04-02T01:26:12.900Z,0.60
2023-04-02T01:29:01.982Z,0.50
2023-04-02T01:31:30.667Z,0.75
2023-04-02T01:33:57.264Z,0.98
2023-04-02T01:36:45.234Z,0.60
2023-04-02T01:39:27.357Z,0.60
2023-04-02T01:42:17.345Z,0.70
2023-04-02T01:44:48.750Z,0.60
2023-04-02T01:47:21.384Z,0.80
2023-04-02T01:49:52.327Z,0.70
2023-04-02T01:52:36.233Z,0.50
2023-04-02T01:55:03.701Z,0.60
2023-04-02T01:57:31.137Z,0.60
2023-04-02T02:00:00.710Z,0.60
2023-04-02T02:02:27.957Z,0.50
2023-04-02T02:04:54.572Z,0.70
2023-04-02T02:07:21.817Z,0.50
2023-04-02T02:09:51.312Z,0.70
2023-04-02T02:12:18.164Z,0.55
2023-04-02T02:14:50.310Z,0.70
2023-04-02T02:17:24.254Z,0.80
2023-04-02T02:20:04.057Z,0.80
2023-04-02T02:22:46.637Z,0.70
2023-04-02T02:25:40.476Z,0.90
2023-04-02T02:28:14.100Z,0.73
2023-04-02T02:31:19.622Z,0.80
2023-04-02T02:33:51.134Z,0.68
2023-04-02T02:36:28.247Z,0.70
2023-04-02T02:39:16.512Z,0.55
2023-04-02T02:41:51.720Z,0.93
2023-04-02T02:44:25.928Z,0.90
2023-04-02T02:47:01.878Z,0.98
2023-04-02T02:49:32.613Z,1.10
2023-04-02T02:52:08.442Z,1.20
2023-04-02T02:54:38.233Z,1.00
2023-04-02T02:57:11.706Z,1.00
2023-04-02T02:59:42.050Z,1.00
2023-04-02T03:02:09.073Z,1.50
2023-04-02T03:04:38.023Z,1.10
2023-04-02T03:07:06.670Z,1.05
2023-04-02T03:10:09.612Z,1.00
2023-04-02T03:12:50.195Z,0.82
2023-04-02T03:15:27.925Z,1.10
2023-04-02T03:18:00.511Z,1.20
2023-04-02T03:20:48.398Z,0.90
2023-04-02T03:23:29.945Z,0.80
2023-04-02T03:26:05.212Z,1.13
2023-04-02T03:28:37.496Z,0.70
2023-04-02T03:31:14.528Z,0.90
2023-04-02T03:33:47.775Z,0.90
2023-04-02T03:36:30.391Z,1.00
2023-04-02T03:39:22.954Z,0.68
2023-04-02T03:41:51.165Z,0.73
2023-04-02T03:44:44.308Z,1.00
2023-04-02T03:47:17.380Z,0.77
2023-04-02T03:49:49.556Z,0.73
2023-04-02T03:52:37.632Z,0.80
2023-04-02T03:55:15.980Z,1.00
2023-04-02T03:57:54.643Z,0.80
2023-04-02T04:00:28.968Z,0.90
2023-04-02T04:03:03.287Z,0.80
2023-04-02T04:05:43.874Z,0.90
2023-04-02T04:08:24.384Z,1.20
2023-04-02T04:10:53.971Z,0.90
2023-04-02T04:13:30.741Z,0.80
2023-04-02T04:16:05.486Z,0.80
2023-04-02T04:18:46.886Z,1.08
2023-04-02T04:21:30.163Z,0.93
2023-04-02T04:24:29.448Z,0.93
2023-04-02T04:27:36.098Z,1.10
2023-04-02T04:30:24.626Z,1.05
2023-04-02T04:32:58.524Z,0.90
2023-04-02T04:35:31.357Z,0.70
2023-04-02T04:38:05.826Z,1.20
2023-04-02T04:40:38.271Z,0.85
2023-04-02T04:43:12.377Z,1.00
2023-04-02T04:45:47.834Z,0.90
2023-04-02T04:48:38.416Z,0.75
2023-04-02T04:51:17.514Z,0.70
2023-04-02T04:53:49.818Z,1.00
2023-04-02T04:56:29.328Z,0.93
2023-04-02T04:59:17.538Z,0.95
2023-04-02T05:02:03.466Z,0.90
2023-04-02T05:04:39.410Z,0.85
2023-04-02T05:07:12.393Z,0.75
2023-04-02T05:09:49.931Z,0.93
2023-04-02T05:12:33.502Z,0.90
2023-04-02T05:15:24.481Z,1.02
2023-04-02T05:18:31.388Z,0.90
2023-04-02T05:21:07.333Z,0.85
2023-04-02T05:24:13.478Z,1.00
2023-04-02T05:26:47.542Z,0.80
2023-04-02T05:29:36.341Z,1.10
2023-04-02T05:32:17.767Z,0.85
2023-04-02T05:34:50.713Z,1.10
2023-04-02T05:37:23.331Z,1.00
2023-04-02T05:39:54.999Z,0.95
2023-04-02T05:42:31.107Z,0.82
2023-04-02T05:45:38.994Z,1.08
2023-04-02T05:48:21.420Z,1.10
2023-04-02T05:50:52.740Z,1.20
2023-04-02T05:53:27.424Z,1.10
2023-04-02T05:55:59.171Z,0.80
2023-04-02T05:58:45.522Z,1.20
2023-04-02T06:01:47.384Z,1.25
2023-04-02T06:04:26.183Z,0.90
2023-04-02T06:07:07.427Z,1.00
2023-04-02T06:09:46.671Z,1.00
2023-04-02T06:12:32.414Z,0.75
2023-04-02T06:14:59.103Z,1.08
2023-04-02T06:17:28.829Z,0.82
2023-04-02T06:20:04.548Z,1.20
2023-04-02T06:25:26.098Z,1.10
2023-04-02T06:27:56.847Z,1.00
2023-04-02T06:30:32.502Z,1.05
2023-04-02T06:35:25.690Z,1.23
2023-04-02T06:37:54.557Z,1.00
2023-04-02T06:40:33.780Z,1.08
2023-04-02T06:43:06.821Z,0.90
2023-04-02T06:45:41.413Z,0.70
2023-04-02T06:48:17.441Z,0.93
2023-04-02T06:51:01.932Z,1.15
2023-04-02T06:53:34.268Z,0.93
2023-04-02T06:56:06.038Z,0.90
2023-04-02T06:58:32.939Z,0.98
2023-04-02T07:01:08.117Z,0.98
2023-04-02T07:06:03.379Z,1.00
2023-04-02T07:08:30.179Z,0.80
2023-04-02T07:10:56.890Z,0.70
2023-04-02T07:13:26.278Z,0.70
2023-04-02T07:15:55.173Z,0.60
2023-04-02T07:18:33.875Z,0.90
2023-04-02T07:21:00.803Z,0.80
2023-04-02T07:23:27.349Z,0.60
2023-04-02T07:25:55.144Z,0.63
2023-04-02T07:28:24.335Z,0.73
2023-04-02T07:30:51.478Z,0.60
2023-04-02T07:33:21.647Z,0.77
2023-04-02T07:35:50.347Z,0.80
2023-04-02T07:38:17.175Z,0.80
2023-04-02T07:40:43.911Z,0.75
2023-04-02T07:43:10.815Z,0.60
2023-04-02T07:45:37.604Z,0.82
2023-04-02T07:48:08.919Z,0.90
2023-04-02T07:50:44.044Z,0.60
2023-04-02T07:53:27.598Z,0.80
2023-04-02T07:55:58.620Z,0.60
2023-04-02T07:58:25.207Z,0.60
2023-04-02T08:00:51.704Z,0.65
2023-04-02T08:03:18.895Z,0.50
2023-04-02T08:05:57.624Z,0.50
2023-04-02T08:08:32.696Z,0.50
2023-04-02T08:10:59.208Z,0.52
2023-04-02T08:13:28.037Z,0.40
2023-04-02T08:15:54.707Z,0.43
2023-04-02T08:18:24.046Z,0.30
2023-04-02T08:20:50.605Z,0.50
2023-04-02T08:23:19.748Z,0.40
2023-04-02T08:25:46.617Z,0.40
2023-04-02T08:28:13.534Z,0.55
2023-04-02T08:30:40.668Z,0.40
2023-04-02T08:33:07.486Z,0.50
2023-04-02T08:35:34.787Z,0.40
2023-04-02T08:38:03.731Z,0.55
2023-04-02T08:40:38.409Z,0.88
2023-04-02T08:43:41.988Z,0.70
2023-04-02T08:46:18.140Z,0.57
2023-04-02T08:48:51.370Z,0.70
2023-04-02T08:51:27.283Z,0.25
2023-04-02T08:54:02.449Z,0.50
2023-04-02T08:56:47.659Z,0.43
2023-04-02T08:59:20.787Z,0.60
2023-04-02T09:02:06.320Z,0.30
2023-04-02T09:04:34.336Z,0.30
2023-04-02T09:07:01.073Z,0.40
2023-04-02T09:09:28.116Z,0.40
2023-04-02T09:11:56.840Z,0.30
2023-04-02T09:14:41.937Z,0.40
2023-04-02T09:17:26.541Z,0.45
2023-04-02T09:20:01.703Z,0.40
2023-04-02T09:22:33.619Z,0.40
2023-04-02T09:25:02.697Z,0.40
2023-04-02T09:27:33.871Z,0.35
2023-04-02T09:30:12.498Z,0.45
2023-04-02T09:32:48.288Z,0.40
2023-04-02T09:35:26.866Z,0.43
2023-04-02T09:38:21.701Z,0.38
2023-04-02T09:40:50.523Z,0.30
2023-04-02T09:43:18.747Z,0.10
2023-04-02T09:45:59.052Z,0.28
2023-04-02T09:48:32.340Z,0.32
2023-04-02T09:51:13.219Z,0.25
2023-04-02T09:54:07.316Z,0.30
2023-04-02T09:56:35.873Z,0.30
2023-04-02T09:59:06.264Z,0.20
2023-04-02T10:01:34.566Z,0.32
2023-04-02T10:04:03.584Z,0.10
2023-04-02T10:06:33.810Z,0.20
2023-04-02T10:12:25.422Z,0.20
2023-04-02T10:14:54.169Z,0.30
2023-04-02T10:17:31.050Z,0.30
2023-04-02T10:20:18.920Z,0.20
2023-04-02T10:22:49.458Z,0.10
2023-04-02T10:25:17.981Z,0.15
2023-04-02T10:28:18.559Z,0.30
2023-04-02T10:31:03.409Z,0.20
2023-04-02T10:33:46.652Z,0.20
2023-04-02T10:36:48.233Z,0.20
2023-04-02T10:39:36.834Z,0.20
2023-04-02T10:42:36.721Z,0.40
2023-04-02T10:45:22.583Z,0.20
2023-04-02T10:48:00.740Z,0.30
2023-04-02T10:50:50.387Z,0.20
2023-04-02T10:53:20.403Z,0.20
2023-04-02T10:55:53.991Z,0.13
2023-04-02T10:58:27.033Z,0.20
2023-04-02T11:01:05.666Z,0.30
2023-04-02T11:03:54.925Z,0.13
2023-04-02T11:06:48.118Z,0.20
2023-04-02T11:09:20.533Z,0.20
2023-04-02T11:11:53.142Z,0.10
2023-04-02T11:14:24.906Z,0.20
2023-04-02T11:16:53.622Z,0.10
2023-04-02T11:19:27.126Z,0.10
2023-04-02T11:21:59.746Z,0.10
2023-04-02T11:24:31.727Z,0.10
2023-04-02T11:27:12.435Z,0.40
2023-04-02T11:29:46.276Z,0.20
2023-04-02T11:32:20.767Z,0.20
2023-04-02T11:34:59.548Z,0.20
2023-04-02T11:37:36.961Z,0.20
2023-04-02T11:40:23.897Z,0.32
2023-04-02T11:42:53.362Z,0.10
2023-04-02T11:45:29.275Z,0.13
2023-04-02T11:48:13.258Z,0.20
2023-04-02T11:50:42.485Z,0.20
2023-04-02T11:53:12.371Z,0.10
2023-04-02T11:55:41.628Z,0.17
2023-04-02T11:58:29.512Z,0.17
2023-04-02T12:01:25.068Z,0.10
2023-04-02T12:04:13.550Z,0.20
2023-04-02T12:07:04.601Z,0.10
2023-04-02T12:09:53.303Z,0.20
2023-04-02T12:12:32.284Z,0.20
2023-04-02T12:15:02.153Z,0.20
2023-04-02T12:17:35.035Z,0.20
2023-04-02T12:20:08.654Z,0.20
2023-04-02T12:22:39.103Z,0.20
2023-04-02T12:25:31.358Z,0.20
2023-04-02T12:28:09.909Z,0.40
2023-04-02T12:30:38.029Z,0.30
2023-04-02T12:33:19.845Z,0.40
2023-04-02T12:35:47.986Z,0.30
2023-04-02T12:38:51.303Z,0.10
2023-04-02T12:41:35.147Z,0.20
2023-04-02T12:44:17.495Z,0.10
2023-04-02T12:46:53.497Z,0.10
2023-04-02T12:49:38.801Z,0.10
2023-04-02T12:52:13.378Z,0.10
2023-04-02T12:54:46.973Z,0.10
2023-04-02T12:57:41.533Z,0.10
2023-04-02T13:00:20.301Z,0.20
2023-04-02T13:03:18.593Z,0.20
2023-04-02T13:05:56.480Z,0.10
2023-04-02T13:08:40.675Z,0.10
2023-04-02T13:11:07.639Z,0.10
2023-04-02T13:13:37.128Z,0.10
2023-04-02T13:16:24.583Z,0.10
2023-04-02T13:18:51.849Z,0.20
2023-04-02T13:21:21.394Z,0.10
2023-04-02T13:23:49.675Z,0.20
2023-04-02T13:26:22.562Z,0.20
2023-04-02T13:29:01.137Z,0.22
2023-04-02T13:31:29.369Z,0.10
2023-04-02T13:33:55.940Z,0.30
2023-04-02T13:36:29.471Z,0.20
2023-04-02T13:38:56.469Z,0.10
2023-04-02T13:41:26.539Z,0.30
2023-04-02T13:43:56.440Z,0.30
2023-04-02T13:46:27.793Z,0.22
2023-04-02T13:48:55.630Z,0.20
2023-04-02T13:51:35.822Z,0.20
2023-04-02T13:54:03.908Z,0.30
2023-04-02T13:56:31.161Z,0.40
2023-04-02T13:58:57.821Z,0.20
2023-04-02T14:01:25.503Z,0.10
2023-04-02T14:03:54.315Z,0.25
2023-04-02T14:06:29.768Z,0.30
2023-04-02T14:09:04.289Z,0.13
2023-04-02T14:11:47.625Z,0.30
2023-04-02T14:14:35.518Z,0.20
2023-04-02T14:17:20.215Z,0.30
2023-04-02T14:20:14.573Z,0.28
2023-04-02T14:23:02.609Z,0.20
2023-04-02T14:25:44.264Z,0.20
2023-04-02T14:28:27.325Z,0.20
2023-04-02T14:31:06.604Z,0.20
2023-04-02T14:33:46.535Z,0.17
2023-04-02T14:36:23.356Z,0.25
2023-04-02T14:38:59.427Z,0.20
2023-04-02T14:41:38.676Z,0.10
2023-04-02T14:44:13.088Z,0.20
2023-04-02T14:46:39.894Z,0.20
2023-04-02T14:49:31.731Z,0.13
2023-04-02T14:52:06.223Z,0.20
2023-04-02T14:55:00.671Z,0.10
2023-04-02T14:57:35.547Z,0.10
2023-04-02T15:00:18.506Z,0.30
2023-04-02T15:02:58.429Z,0.13
2023-04-02T15:05:59.146Z,0.20
2023-04-02T15:08:55.419Z,0.45
2023-04-02T15:11:56.547Z,0.10
2023-04-02T15:14:25.728Z,0.20
2023-04-02T15:16:52.233Z,0.20
2023-04-02T15:19:25.961Z,0.10
2023-04-02T15:22:19.677Z,0.10
2023-04-02T15:24:56.260Z,0.20
2023-04-02T15:27:31.535Z,0.10
2023-04-02T15:30:18.238Z,0.20
2023-04-02T15:32:45.993Z,0.30
2023-04-02T15:35:24.364Z,0.10
2023-04-02T15:38:09.509Z,0.15
2023-04-02T15:40:48.895Z,0.30
2023-04-02T15:43:29.170Z,0.20
2023-04-02T15:46:23.828Z,0.20
2023-04-02T15:49:21.834Z,0.13
2023-04-02T15:52:06.499Z,0.30
2023-04-02T15:54:44.889Z,0.30
2023-04-02T15:57:34.217Z,0.20
2023-04-02T16:00:22.205Z,0.30
2023-04-02T16:03:20.972Z,0.20
2023-04-02T16:06:12.988Z,0.30
2023-04-02T16:08:50.443Z,0.30
2023-04-02T16:11:17.071Z,0.28
2023-04-02T16:13:43.796Z,0.20
2023-04-02T16:16:21.458Z,0.10
2023-04-02T16:19:02.147Z,0.20
2023-04-02T16:22:11.656Z,0.20
2023-04-02T16:24:38.391Z,0.10
2023-04-02T16:27:33.516Z,0.20
2023-04-02T16:30:22.539Z,0.10
2023-04-02T16:33:09.511Z,0.20
2023-04-02T16:36:11.605Z,0.32
2023-04-02T16:38:46.399Z,0.22
2023-04-02T16:41:39.116Z,0.20
2023-04-02T16:44:18.841Z,0.60
2023-04-02T16:46:54.528Z,0.20
2023-04-02T16:51:59.973Z,0.20
2023-04-02T16:54:43.469Z,0.10
2023-04-02T16:57:14.906Z,0.17
2023-04-02T17:00:01.174Z,0.20
2023-04-02T17:05:11.733Z,0.10
2023-04-02T17:07:48.358Z,0.10
2023-04-02T17:10:21.277Z,0.10
2023-04-02T17:12:56.959Z,0.20
2023-04-02T17:15:28.582Z,0.10
2023-04-02T17:18:00.629Z,0.13
2023-04-02T17:20:28.341Z,0.20
2023-04-02T17:22:56.135Z,0.30
2023-04-02T17:25:33.338Z,0.40
2023-04-02T17:28:02.160Z,0.20
2023-04-02T17:30:38.324Z,0.30
2023-04-02T17:33:11.840Z,0.30
2023-04-02T17:35:50.625Z,0.20
2023-04-02T17:38:31.232Z,0.10
2023-04-02T17:41:16.806Z,0.30
2023-04-02T17:44:02.498Z,0.13
2023-04-02T17:46:41.674Z,0.30
2023-04-02T17:49:20.043Z,0.10
2023-04-02T17:51:55.433Z,0.10
2023-04-02T17:54:40.515Z,0.10
2023-04-02T17:57:37.652Z,0.20
2023-04-02T18:00:23.130Z,0.20
2023-04-02T18:03:29.456Z,0.20
2023-04-02T18:06:27.650Z,0.13
2023-04-02T18:09:33.411Z,0.13
2023-04-02T18:12:18.547Z,0.45
2023-04-02T18:15:09.305Z,0.32
2023-04-02T18:17:52.994Z,0.28
2023-04-02T18:20:28.484Z,0.40
2023-04-02T18:22:54.919Z,1.33
2023-04-02T18:25:39.609Z,0.50
2023-04-02T18:28:16.316Z,0.60
2023-04-02T18:30:56.776Z,0.40
2023-04-02T18:33:32.484Z,0.40
2023-04-02T18:36:19.004Z,0.43
2023-04-02T18:38:57.430Z,0.32
2023-04-02T18:41:47.644Z,0.30
2023-04-02T18:44:16.819Z,0.30
2023-04-02T18:46:56.492Z,0.30
2023-04-02T18:49:29.452Z,0.20
2023-04-02T18:52:04.169Z,0.30
2023-04-02T18:54:38.439Z,0.20
2023-04-02T18:57:39.104Z,0.45
2023-04-02T19:00:22.084Z,0.40
2023-04-02T19:03:07.227Z,0.40
2023-04-02T19:05:40.719Z,0.40
2023-04-02T19:08:29.397Z,0.43
2023-04-02T19:11:04.197Z,0.43
2023-04-02T19:13:35.865Z,0.50
2023-04-02T19:16:28.375Z,0.40
2023-04-02T19:19:21.491Z,0.30
2023-04-02T19:22:02.625Z,0.73
2023-04-02T19:24:36.370Z,0.70
2023-04-02T19:27:12.051Z,0.50
2023-04-02T19:30:03.147Z,0.52
2023-04-02T19:32:37.456Z,0.40
2023-04-02T19:35:36.158Z,0.63
2023-04-02T19:38:39.869Z,0.50
2023-04-02T19:41:31.206Z,0.60
2023-04-02T19:43:57.960Z,0.70
2023-04-02T19:46:26.441Z,0.75
2023-04-02T19:49:30.639Z,0.60
2023-04-02T19:51:59.486Z,0.68
2023-04-02T19:54:26.146Z,0.65
2023-04-02T19:56:53.007Z,0.70
2023-04-02T19:59:19.506Z,0.65
2023-04-02T20:01:46.736Z,0.55
2023-04-02T20:04:24.761Z,0.57
2023-04-02T20:06:51.805Z,0.65
2023-04-02T20:09:18.288Z,0.32
2023-04-02T20:11:46.645Z,0.43
2023-04-02T20:14:13.302Z,0.50
2023-04-02T20:16:40.161Z,0.50
2023-04-02T20:19:08.466Z,0.82
2023-04-02T20:21:38.453Z,0.57
2023-04-02T20:24:08.431Z,0.80
2023-04-02T20:26:36.352Z,0.47
2023-04-02T20:29:07.617Z,0.77
2023-04-02T20:31:34.623Z,0.60
2023-04-02T20:34:04.514Z,0.82
2023-04-02T20:36:31.598Z,0.68
2023-04-02T20:38:58.755Z,0.60
2023-04-02T20:41:32.966Z,0.65
2023-04-02T20:43:59.482Z,0.52
2023-04-02T20:46:26.184Z,0.90
2023-04-02T20:48:52.881Z,0.43
2023-04-02T20:51:19.412Z,0.68
2023-04-02T20:53:46.672Z,0.70
2023-04-02T20:56:17.816Z,0.30
2023-04-02T20:58:44.673Z,0.60
2023-04-02T21:01:26.339Z,0.73
2023-04-02T21:04:00.702Z,0.75
2023-04-02T21:06:31.689Z,0.50
2023-04-02T21:08:58.305Z,0.45
2023-04-02T21:11:26.250Z,0.50
2023-04-02T21:13:54.665Z,0.73
2023-04-02T21:16:29.598Z,0.70
2023-04-02T21:19:00.242Z,0.80
2023-04-02T21:21:27.660Z,0.50
2023-04-02T21:23:57.198Z,0.60
2023-04-02T21:26:31.900Z,0.60
2023-04-02T21:28:59.942Z,0.77
2023-04-02T21:31:30.602Z,0.65
2023-04-02T21:34:00.718Z,0.70
2023-04-02T21:36:29.850Z,0.85
2023-04-02T21:38:59.287Z,0.80
2023-04-02T21:41:39.199Z,0.60
2023-04-02T21:44:09.942Z,0.77
2023-04-02T21:46:38.648Z,0.95
2023-04-02T21:49:12.564Z,0.90
2023-04-02T21:51:41.017Z,0.90
2023-04-02T21:54:11.604Z,0.82
2023-04-02T21:56:42.310Z,0.80
2023-04-02T21:59:10.624Z,0.70
2023-04-02T22:01:40.606Z,0.90
2023-04-02T22:04:10.620Z,0.90
2023-04-02T22:06:40.716Z,0.93
2023-04-02T22:09:10.710Z,0.95
2023-04-02T22:11:43.300Z,1.00
2023-04-02T22:14:10.371Z,0.90
2023-04-02T22:16:37.402Z,0.95
2023-04-02T22:19:09.395Z,1.10
2023-04-02T22:21:36.964Z,1.10
2023-04-02T22:24:05.723Z,1.30
2023-04-02T22:26:33.815Z,1.58
2023-04-02T22:29:00.620Z,1.67
2023-04-02T22:31:29.850Z,1.70
2023-04-02T22:33:58.391Z,1.90
2023-04-02T22:36:27.148Z,1.80
2023-04-02T22:38:56.674Z,2.10
2023-04-02T22:41:29.162Z,2.30
2023-04-02T22:43:56.676Z,2.33
2023-04-02T22:46:26.745Z,2.60
2023-04-02T22:48:54.459Z,2.15
2023-04-02T22:51:22.327Z,2.45
2023-04-02T22:53:50.220Z,2.15
2023-04-02T22:56:21.773Z,2.40
2023-04-02T22:58:48.948Z,1.90
2023-04-02T23:01:19.236Z,2.45
2023-04-02T23:03:45.954Z,2.30
2023-04-02T23:06:14.742Z,2.65
2023-04-02T23:08:41.462Z,2.72
2023-04-02T23:11:18.546Z,3.10
2023-04-02T23:13:47.663Z,3.10
2023-04-02T23:16:15.485Z,2.97
2023-04-02T23:18:43.355Z,3.90
2023-04-02T23:21:10.263Z,3.42
2023-04-02T23:23:36.823Z,3.95
2023-04-02T23:26:17.143Z,3.60
2023-04-02T23:28:44.564Z,3.80
2023-04-02T23:31:15.050Z,3.67
2023-04-02T23:33:42.452Z,3.22
2023-04-02T23:36:11.206Z,3.85
2023-04-02T23:38:37.768Z,4.10
2023-04-02T23:41:11.116Z,4.10
2023-04-02T23:43:37.604Z,4.15
2023-04-02T23:46:04.123Z,4.20
2023-04-02T23:48:30.744Z,3.85
2023-04-02T23:50:57.269Z,4.50
2023-04-02T23:53:28.439Z,4.70
2023-04-02T23:55:55.078Z,4.72
2023-04-02T23:58:21.581Z,4.78
